Historyczne dane pomiarowe

Dodano dane terminowe – wersja testowa.

Dane z okresu 1951-2019

Wersja bazy: 1.34 [2019-03-16, lista zmian], aktualizacja planowana na 2019-04-15

Dane meteo z obszaru Polski uzyskane na podstawie danych udostępnionych przez Instytut Meteorologii i Gospodarki Wodnej – Państwowy Instytut Badawczy.

 

Wybierz Datę:    

       

TemperaturaWilgotnośćWiatrCiśnienieOpadyŚniegCzas trwania zjawisk
 Stacja t tx tn tng RH VA  wxwx mslp ppp RRR   cm mm wxwxwxwxwxwxwx
1987-08-14 13.2 16.8 7.9- 90.5- 8.0 2.0---- 1.1------------
1987-08-13 12.5 20.0 2.2- 74.0- 1.7 0.3---- 0.0------------
1987-08-12 12.1 17.5 4.8- 82.3- 2.0 2.7---- 0.2------------
1987-08-11 12.4 16.4 9.9- 83.8- 5.0 4.0---- 5.6------------
1987-08-10 12.9 17.2 11.4- 94.3- 8.0 0.7---- 7.7------------
1987-08-09 14.0 19.7 7.5- 84.0- 6.3 0.7---- 1.9------------
1987-08-08 12.5 18.6 5.4- 73.8- 1.3 3.0---- 0.0------------
1987-08-07 12.0 18.0 6.4- 75.5- 1.3 2.7---- 0.0------------
1987-08-06 11.1 13.1 9.3- 92.3- 7.7 2.7---- 9.8------------
1987-08-05 11.1 14.1 8.9- 92.5- 8.0 3.3---- 16.1------------
1987-08-04 11.9 15.2 8.7- 88.5- 6.7 1.3---- 8.7------------
1987-08-03 12.8 16.9 9.0- 83.3- 6.7 2.0---- 6.3------------
1987-08-02 12.8 17.2 9.1- 79.3- 3.7 3.7---- 1.0------------
1987-08-01 15.1 19.4 13.6- 89.3- 5.3 3.0---- 0.0------------
1987-07-31 15.1 18.0 12.0- 89.8- 7.0 3.7---- 1.5------------
1987-07-30 15.1 21.5 8.4- 89.0- 6.0 1.3---- 3.6------------
1987-07-29 13.4 16.5 9.5- 85.3- 6.3 2.0---- 0.0------------
1987-07-28 13.2 17.0 10.7- 93.8- 8.0 1.3---- 1.9------------
1987-07-27 11.9 15.7 9.7- 85.5- 7.7 4.0---- 2.3------------
1987-07-26 12.8 17.0 8.0- 76.3- 5.7 3.0---- 0.2------------
1987-07-25 14.4 18.6 10.6- 78.5- 5.3 3.7---- 0.3------------
1987-07-24 17.0 22.2 12.4- 86.0- 6.3 3.0---- 1.1------------
1987-07-23 18.2 22.2 11.4- 90.8- 6.3 0.3---- 18.1------------
1987-07-22 18.1 21.6 15.0- 86.5- 4.7 0.7---- 0.0------------
1987-07-21 18.6 23.3 12.3- 80.8- 3.3 0.7---- 10.0------------
1987-07-20 17.5 23.0 12.6- 80.0- 4.3 1.0---- 0.0------------
1987-07-19 17.7 20.9 14.8- 91.8- 7.3 2.7---- 3.6------------
1987-07-18 19.6 22.0 16.6- 91.8- 6.7 1.3---- 16.7------------
1987-07-17 19.7 25.4 14.3- 68.8- 6.0 9.3---- 0.1------------
1987-07-16 17.6 23.5 10.6- 69.5- 3.0 5.7---- 0.0------------
1987-07-15 16.4 22.2 8.2- 67.8- 1.7 3.3---- 0.0------------
1987-07-14 15.6 21.4 7.9- 77.5- 5.0 1.3---- 0.0------------
1987-07-13 14.7 18.2 11.7- 76.8- 6.0 5.0---- 0.3------------
1987-07-12 16.4 19.2 14.7- 93.0- 6.0 2.0---- 12.9------------
1987-07-11 13.2 17.1 8.6- 95.0- 8.0 0.7---- 12.3------------
1987-07-10 12.8 16.8 9.0- 75.5- 5.7 4.3---- 1.0------------
1987-07-09 15.8 20.1 13.0- 76.8- 5.7 4.3---- 1.5------------
1987-07-08 20.4 27.6 14.4- 75.8- 6.7 1.0---- 3.3------------
1987-07-07 20.4 27.4 8.2- 59.3- 0.0 3.3---- 0.0------------
1987-07-06 17.3 25.0 5.8- 63.0- 0.0 0.7---- 0.0------------
1987-07-05 15.0 22.0 5.1- 72.3- 2.7 1.0---- 0.0------------
1987-07-04 15.9 19.4 8.6- 69.0- 2.3 2.3---- 0.0------------
1987-07-03 15.7 22.4 5.3- 73.8- 3.0 2.0---- 0.0------------
1987-07-02 15.8 20.9 9.8- 76.8- 3.0 1.7---- 0.0------------
1987-07-01 21.0 27.4 16.9- 81.0- 3.3 2.7---- 0.5------------
1987-06-30 24.4 30.8 16.3- 72.5- 3.3 1.7---- 0.0------------
1987-06-29 18.4 25.5 8.9- 85.5- 6.3 1.3---- 0.0------------
1987-06-28 16.3 19.5 13.6- 77.8- 5.0 1.0---- 1.0------------
1987-06-27 15.7 20.2 11.4- 71.3- 3.7 1.7---- 2.2------------
1987-06-26 14.1 20.8 5.6- 75.8- 4.0 2.7---- 0.0------------
1987-06-25 12.3 14.5 7.5- 80.3- 6.7 2.7---- 1.0------------
1987-06-24 12.4 15.5 10.6- 88.0- 8.0 1.0---- 0.4------------
1987-06-23 13.2 18.5 5.8- 86.0- 7.3 1.7---- 19.1------------
1987-06-22 13.1 16.5 10.7- 86.5- 7.7 1.3---- 0.0------------
1987-06-21 14.9 22.1 9.3- 87.0- 5.7 0.7---- 12.7------------
1987-06-20 14.9 21.0 6.3- 70.0- 2.3 2.3---- 0.0------------
1987-06-19 11.6 15.5 7.9- 78.3- 6.3 2.0---- 0.0------------
1987-06-18 9.0 14.2 5.0- 86.0- 4.7 4.3---- 6.2------------
1987-06-17 11.1 14.6 8.6- 71.0- 4.7 4.3---- 0.0------------
1987-06-16 9.9 15.2 7.2- 94.0- 8.0 5.7---- 2.1------------
2333.4 ms

 

Źródłem pochodzenia danych jest Instytut Meteorologii i Gospodarki Wodnej – Państwowy Instytut Badawczy. Dane Instytutu Meteorologii i Gospodarki Wodnej – Państwowego Instytutu Badawczego zostały przetworzone.

Dane źródłowe można odnaleźć na stronie https://dane.imgw.pl